Time;durP1;ratioP1;P1;durP2;ratioP2;P2;SDS_P1;SDS_P2;PMS_P1;PMS_P2;Temp;Humidity;BMP_temperature;BMP_pressure;BME280_temperature;BME280_humidity;BME280_pressure;Samples;Min_cycle;Max_cycle;Signal;HPM_P1;HPM_P2
2023/09/27 00:00:10;;;;;;;5.85;3.83;;;20.40;71.60;;;;;;5060994;28;20479;-75
2023/09/27 00:02:43;;;;;;;7.97;3.42;;;20.40;71.20;;;;;;5060117;28;20029;-77
2023/09/27 00:05:11;;;;;;;7.68;3.20;;;20.40;71.30;;;;;;5060871;28;20115;-79
2023/09/27 00:07:41;;;;;;;7.60;3.50;;;20.40;71.20;;;;;;5059341;28;20021;-80
2023/09/27 00:10:11;;;;;;;8.35;3.47;;;20.40;71.40;;;;;;5058626;28;20044;-77
2023/09/27 00:12:40;;;;;;;10.95;3.97;;;20.50;71.40;;;;;;5057812;28;20028;-81
2023/09/27 00:15:10;;;;;;;7.53;4.40;;;20.60;71.40;;;;;;5064135;28;20028;-76
2023/09/27 00:17:37;;;;;;;9.50;5.32;;;20.70;71.00;;;;;;5059567;28;20134;-77
2023/09/27 00:20:09;;;;;;;7.68;5.03;;;20.80;70.30;;;;;;5078226;28;20054;-77
2023/09/27 00:22:41;;;;;;;8.68;4.25;;;20.90;70.60;;;;;;5066100;28;20468;-76
2023/09/27 00:25:14;;;;;;;8.63;4.95;;;21.20;70.50;;;;;;5061207;28;20345;-76
2023/09/27 00:27:42;;;;;;;7.65;5.55;;;21.50;70.00;;;;;;5066342;28;20022;-75
2023/09/27 00:30:14;;;;;;;11.00;6.18;;;21.70;68.80;;;;;;5060729;28;20119;-81
2023/09/27 00:32:44;;;;;;;10.13;5.72;;;22.00;67.00;;;;;;5069219;28;20025;-76
2023/09/27 00:35:18;;;;;;;11.60;6.15;;;22.30;65.70;;;;;;5068806;28;20079;-77
2023/09/27 00:37:51;;;;;;;11.45;5.70;;;22.50;65.60;;;;;;5063377;28;20080;-76
2023/09/27 00:40:21;;;;;;;10.70;6.50;;;22.80;64.60;;;;;;5066805;28;20025;-81
2023/09/27 00:42:48;;;;;;;10.88;6.15;;;23.00;63.80;;;;;;5065073;28;20082;-78
2023/09/27 00:45:18;;;;;;;10.18;6.25;;;23.30;62.90;;;;;;5075790;28;20020;-79
2023/09/27 00:47:49;;;;;;;11.13;5.95;;;23.30;62.80;;;;;;5076065;28;20036;-79
2023/09/27 00:50:17;;;;;;;12.55;6.03;;;23.50;61.70;;;;;;5083152;28;20085;-75
2023/09/27 00:52:46;;;;;;;10.10;5.88;;;23.70;61.00;;;;;;5096456;28;20028;-80
2023/09/27 00:55:14;;;;;;;9.32;6.53;;;23.90;60.20;;;;;;5096361;28;20032;-81
2023/09/27 00:57:42;;;;;;;8.73;6.00;;;24.10;59.80;;;;;;5078983;28;20029;-81
2023/09/27 01:00:11;;;;;;;10.38;6.45;;;24.00;58.80;;;;;;5075779;28;20086;-78
2023/09/27 01:02:41;;;;;;;8.48;5.30;;;23.90;59.70;;;;;;5075914;28;20429;-79
2023/09/27 01:05:12;;;;;;;9.65;6.63;;;24.00;59.00;;;;;;5071974;28;20020;-77
2023/09/27 01:07:40;;;;;;;10.63;6.00;;;24.10;58.90;;;;;;5076698;28;20028;-80
2023/09/27 01:10:08;;;;;;;10.68;6.40;;;24.30;58.60;;;;;;5075602;28;20056;-80
2023/09/27 01:12:39;;;;;;;14.52;6.95;;;24.60;58.10;;;;;;5075570;28;20444;-77
2023/09/27 01:15:07;;;;;;;11.80;7.40;;;24.40;56.90;;;;;;5094479;28;20575;-79
2023/09/27 01:17:36;;;;;;;6.95;5.63;;;24.30;56.30;;;;;;5064777;28;20025;-80
2023/09/27 01:20:11;;;;;;;9.05;6.10;;;24.20;57.50;;;;;;5075592;28;20024;-79
2023/09/27 01:22:39;;;;;;;9.73;6.55;;;24.20;57.70;;;;;;5066371;28;20025;-80
2023/09/27 01:25:11;;;;;;;7.57;6.43;;;24.30;57.50;;;;;;5070330;28;20426;-83
2023/09/27 01:27:39;;;;;;;8.07;6.25;;;24.20;57.00;;;;;;5075389;28;20103;-82
2023/09/27 01:30:07;;;;;;;10.63;6.32;;;24.20;57.00;;;;;;5074679;28;20455;-82
2023/09/27 01:32:37;;;;;;;10.38;6.90;;;24.20;56.70;;;;;;5075226;28;20032;-78
2023/09/27 01:35:05;;;;;;;9.60;6.18;;;24.20;57.50;;;;;;5063641;28;20021;-83
2023/09/27 01:37:33;;;;;;;10.80;5.70;;;24.30;56.90;;;;;;5054018;28;20052;-84
2023/09/27 01:40:01;;;;;;;7.57;6.07;;;24.30;56.70;;;;;;5055183;28;20029;-80
2023/09/27 01:42:28;;;;;;;7.85;6.25;;;24.30;56.80;;;;;;5060486;28;20150;-79
2023/09/27 01:44:55;;;;;;;10.75;6.47;;;24.30;56.40;;;;;;5062844;28;20033;-79
2023/09/27 01:47:23;;;;;;;10.52;6.93;;;24.30;56.10;;;;;;5069870;28;20479;-77
2023/09/27 01:49:51;;;;;;;9.48;6.35;;;24.20;55.70;;;;;;5074880;28;20093;-78
2023/09/27 01:52:18;;;;;;;9.30;6.50;;;24.00;55.30;;;;;;5068221;28;20081;-77
2023/09/27 01:54:45;;;;;;;10.15;6.82;;;24.00;56.20;;;;;;5070025;28;20035;-78
2023/09/27 01:57:13;;;;;;;11.98;6.45;;;24.00;56.00;;;;;;5073873;28;20033;-79
2023/09/27 01:59:40;;;;;;;8.27;6.45;;;23.80;56.10;;;;;;5072959;28;20146;-77
2023/09/27 02:02:07;;;;;;;9.52;6.05;;;23.90;56.30;;;;;;5074744;28;20075;-79
2023/09/27 02:04:35;;;;;;;12.13;6.72;;;23.90;56.70;;;;;;5072881;28;20124;-75
2023/09/27 02:07:02;;;;;;;12.23;6.40;;;24.10;56.60;;;;;;5071232;28;20036;-77
2023/09/27 02:09:29;;;;;;;10.23;6.32;;;24.30;56.10;;;;;;5067298;28;20107;-85
2023/09/27 02:11:57;;;;;;;8.38;5.82;;;24.50;56.00;;;;;;5072796;28;20021;-77
2023/09/27 02:14:24;;;;;;;11.63;5.28;;;24.60;55.90;;;;;;5064839;28;20115;-75
2023/09/27 02:16:52;;;;;;;9.48;5.00;;;24.60;56.40;;;;;;5073936;28;20494;-76
2023/09/27 02:19:19;;;;;;;10.10;4.60;;;24.60;56.40;;;;;;5076284;28;20101;-82
2023/09/27 02:21:46;;;;;;;7.93;5.20;;;24.50;56.50;;;;;;5074177;28;20035;-76
2023/09/27 02:24:15;;;;;;;7.80;4.43;;;24.30;56.70;;;;;;5086005;28;20463;-77
2023/09/27 02:26:44;;;;;;;8.05;4.50;;;24.30;57.00;;;;;;5074575;28;20056;-76
2023/09/27 02:29:12;;;;;;;10.85;5.20;;;24.30;57.30;;;;;;5072729;28;20496;-77
2023/09/27 02:31:41;;;;;;;6.72;4.25;;;24.20;57.50;;;;;;5073826;28;20033;-77
2023/09/27 02:34:08;;;;;;;6.47;3.85;;;24.20;57.50;;;;;;5081633;28;20043;-78
2023/09/27 02:36:37;;;;;;;8.57;4.00;;;24.30;57.30;;;;;;5072804;28;20112;-76
2023/09/27 02:39:05;;;;;;;6.88;3.65;;;24.40;57.00;;;;;;5066510;28;20041;-78
2023/09/27 02:41:36;;;;;;;8.68;4.50;;;24.60;57.10;;;;;;5054744;28;20105;-78
2023/09/27 02:44:03;;;;;;;6.28;3.53;;;24.70;56.20;;;;;;5054451;28;20029;-80
2023/09/27 02:46:31;;;;;;;5.18;3.10;;;24.70;56.10;;;;;;5061865;28;20484;-81
2023/09/27 02:49:00;;;;;;;5.70;3.20;;;24.70;56.30;;;;;;5063642;28;20035;-78
2023/09/27 02:51:28;;;;;;;4.93;3.28;;;24.80;55.90;;;;;;5074403;28;20480;-80
2023/09/27 02:53:55;;;;;;;7.03;2.95;;;24.80;55.40;;;;;;5074107;28;20092;-78
2023/09/27 02:56:22;;;;;;;6.70;3.53;;;24.90;55.70;;;;;;5060536;28;20474;-80
2023/09/27 02:58:50;;;;;;;7.00;3.72;;;25.00;55.10;;;;;;5053670;28;20451;-77
2023/09/27 03:01:17;;;;;;;7.22;3.75;;;25.00;55.30;;;;;;5062356;28;20028;-80
2023/09/27 03:03:46;;;;;;;6.65;3.45;;;25.00;54.80;;;;;;5073626;28;20040;-78
2023/09/27 03:06:16;;;;;;;7.85;3.60;;;24.90;55.00;;;;;;5062634;28;20025;-76
2023/09/27 03:08:44;;;;;;;6.43;3.67;;;24.90;55.10;;;;;;5068835;28;20036;-77
2023/09/27 03:11:12;;;;;;;6.90;3.40;;;24.90;55.00;;;;;;5053363;28;20460;-79
2023/09/27 03:13:43;;;;;;;6.55;3.55;;;25.00;55.20;;;;;;5058168;28;21947;-77
2023/09/27 03:16:12;;;;;;;8.32;4.10;;;25.10;55.10;;;;;;5072176;28;20087;-80
2023/09/27 03:18:40;;;;;;;7.85;4.00;;;25.20;54.50;;;;;;5074266;28;20025;-79
2023/09/27 03:21:07;;;;;;;9.13;4.28;;;25.20;54.60;;;;;;5062786;28;20104;-78
2023/09/27 03:23:35;;;;;;;7.93;4.13;;;25.20;54.30;;;;;;5053382;28;20419;-81
2023/09/27 03:26:04;;;;;;;7.13;3.53;;;25.20;54.50;;;;;;5067450;28;20024;-80
2023/09/27 03:28:32;;;;;;;6.55;4.00;;;25.10;54.30;;;;;;5073325;28;20162;-78
2023/09/27 03:31:00;;;;;;;6.65;3.78;;;25.20;54.50;;;;;;5073293;28;20029;-77
2023/09/27 03:33:27;;;;;;;7.25;3.80;;;25.20;54.40;;;;;;5067814;28;20083;-77
2023/09/27 03:35:57;;;;;;;8.07;3.40;;;25.20;54.60;;;;;;5053478;28;20052;-76
2023/09/27 03:38:25;;;;;;;7.00;3.35;;;25.20;54.30;;;;;;5053569;28;20052;-78
2023/09/27 03:40:52;;;;;;;6.80;3.53;;;25.30;54.20;;;;;;5057086;28;20107;-83
2023/09/27 03:43:19;;;;;;;6.18;3.95;;;25.30;54.10;;;;;;5071098;28;20412;-80
2023/09/27 03:45:48;;;;;;;5.63;3.70;;;25.30;53.60;;;;;;5058687;28;20059;-78
2023/09/27 03:48:16;;;;;;;6.03;3.58;;;25.40;53.70;;;;;;5058925;28;20050;-78
2023/09/27 03:50:45;;;;;;;7.47;4.07;;;25.50;53.80;;;;;;5052459;28;20027;-76
2023/09/27 03:53:13;;;;;;;6.85;4.97;;;25.50;53.70;;;;;;5056517;28;20044;-76
2023/09/27 03:55:41;;;;;;;7.03;4.70;;;25.50;53.40;;;;;;5056259;28;20031;-76
2023/09/27 03:58:08;;;;;;;5.85;4.18;;;25.40;53.30;;;;;;5052478;28;20072;-77
2023/09/27 04:00:36;;;;;;;10.70;4.35;;;25.30;53.30;;;;;;5053298;28;20028;-77
2023/09/27 04:03:06;;;;;;;5.80;4.28;;;25.30;53.70;;;;;;5072372;28;20066;-82
2023/09/27 04:05:34;;;;;;;7.18;4.65;;;25.40;53.50;;;;;;5060620;28;20029;-77
2023/09/27 04:08:01;;;;;;;6.53;3.95;;;25.40;53.10;;;;;;5061919;28;20024;-76
2023/09/27 04:10:31;;;;;;;6.13;3.88;;;25.40;53.10;;;;;;5066029;28;20059;-79
2023/09/27 04:12:58;;;;;;;6.93;3.60;;;25.30;52.70;;;;;;5051075;28;20448;-82
2023/09/27 04:15:26;;;;;;;5.60;3.65;;;25.30;53.30;;;;;;5052617;28;20475;-76
2023/09/27 04:17:54;;;;;;;7.43;3.42;;;25.30;53.60;;;;;;5057513;28;20062;-76
2023/09/27 04:20:22;;;;;;;5.95;3.55;;;25.50;53.30;;;;;;5064031;28;20527;-77
2023/09/27 04:22:50;;;;;;;6.85;4.00;;;25.60;53.30;;;;;;5051200;28;20391;-76
2023/09/27 04:25:19;;;;;;;6.70;3.45;;;25.60;53.10;;;;;;5062573;28;20035;-77
2023/09/27 04:27:49;;;;;;;6.47;3.90;;;25.60;53.20;;;;;;5072562;28;20044;-76
2023/09/27 04:30:21;;;;;;;5.95;3.70;;;25.60;52.60;;;;;;5056996;28;20128;-77
2023/09/27 04:32:50;;;;;;;5.45;3.47;;;25.30;52.50;;;;;;5069438;28;20020;-76
2023/09/27 04:35:20;;;;;;;7.45;3.42;;;25.30;53.00;;;;;;5072491;28;20025;-77
2023/09/27 04:37:47;;;;;;;9.23;3.50;;;25.20;53.60;;;;;;5069927;28;20491;-76
2023/09/27 04:40:14;;;;;;;5.13;2.95;;;25.10;53.90;;;;;;5063577;28;20032;-80
2023/09/27 04:42:46;;;;;;;6.15;3.30;;;25.10;53.80;;;;;;5052521;28;20051;-77
2023/09/27 04:45:14;;;;;;;4.82;3.10;;;25.10;53.90;;;;;;5052179;28;20037;-77
2023/09/27 04:47:45;;;;;;;5.43;3.85;;;24.90;53.80;;;;;;5053956;28;20100;-77
2023/09/27 04:50:12;;;;;;;7.95;4.00;;;24.90;54.10;;;;;;5072439;28;20041;-76
2023/09/27 04:52:40;;;;;;;6.43;3.90;;;24.80;54.40;;;;;;5055223;28;20029;-78
2023/09/27 04:55:08;;;;;;;6.43;3.42;;;24.80;54.40;;;;;;5070193;28;20051;-78
2023/09/27 04:57:36;;;;;;;8.02;4.05;;;24.70;54.40;;;;;;5052686;28;20012;-77
2023/09/27 05:00:13;;;;;;;6.50;3.90;;;24.60;54.70;;;;;;5058924;28;20049;-76
2023/09/27 05:02:44;;;;;;;11.35;3.17;;;24.50;55.00;;;;;;5057352;28;20033;-77
2023/09/27 05:05:11;;;;;;;6.18;3.38;;;24.30;55.90;;;;;;5071589;28;20039;-77
2023/09/27 05:07:39;;;;;;;6.05;2.88;;;24.30;56.40;;;;;;5072179;28;20418;-76
2023/09/27 05:10:08;;;;;;;7.00;2.65;;;24.20;56.30;;;;;;5071671;28;20047;-76
2023/09/27 05:12:35;;;;;;;4.80;2.70;;;24.20;56.80;;;;;;5059993;28;20056;-75
2023/09/27 05:15:03;;;;;;;9.13;3.13;;;24.00;57.00;;;;;;5055346;28;20028;-78
2023/09/27 05:17:30;;;;;;;6.82;2.90;;;24.00;57.30;;;;;;5070423;28;20017;-77
2023/09/27 05:19:57;;;;;;;5.68;2.50;;;23.80;57.40;;;;;;5073967;28;20055;-76
2023/09/27 05:22:25;;;;;;;6.90;2.55;;;23.70;57.70;;;;;;5069725;28;20020;-75
2023/09/27 05:24:52;;;;;;;6.63;2.53;;;23.60;58.00;;;;;;5074145;28;20028;-76
2023/09/27 05:27:20;;;;;;;7.03;2.40;;;23.50;58.30;;;;;;5070533;28;20029;-76
2023/09/27 05:29:48;;;;;;;6.97;2.17;;;23.50;58.40;;;;;;5071642;28;20151;-77
2023/09/27 05:32:15;;;;;;;5.57;2.25;;;23.60;58.30;;;;;;5075210;28;20036;-77
2023/09/27 05:34:43;;;;;;;4.68;1.95;;;23.60;58.50;;;;;;5075516;28;20023;-77
2023/09/27 05:37:10;;;;;;;3.83;1.98;;;23.60;58.40;;;;;;5060909;28;20588;-77
2023/09/27 05:39:37;;;;;;;5.40;2.60;;;23.60;58.60;;;;;;5074233;28;20162;-77
2023/09/27 05:42:05;;;;;;;4.45;2.33;;;23.60;58.60;;;;;;5074000;28;20100;-76
2023/09/27 05:44:32;;;;;;;4.05;2.20;;;23.50;58.50;;;;;;5055660;28;20043;-76
2023/09/27 05:46:59;;;;;;;6.13;2.55;;;23.50;58.60;;;;;;5055036;28;20055;-78
2023/09/27 05:49:27;;;;;;;3.90;2.20;;;23.60;58.60;;;;;;5055339;28;20111;-78
2023/09/27 05:51:55;;;;;;;5.80;2.00;;;23.60;58.40;;;;;;5055253;28;20060;-78
2023/09/27 05:54:23;;;;;;;5.00;2.25;;;23.70;58.50;;;;;;5068390;28;20028;-77
2023/09/27 05:56:54;;;;;;;7.68;2.38;;;23.60;58.70;;;;;;5075394;28;20439;-76
2023/09/27 05:59:24;;;;;;;8.50;2.10;;;23.50;59.20;;;;;;5075306;28;20480;-77
2023/09/27 06:01:51;;;;;;;6.22;2.05;;;23.40;59.40;;;;;;5070763;28;20155;-77
2023/09/27 06:04:19;;;;;;;7.93;2.15;;;23.30;59.40;;;;;;5075093;28;20106;-77
2023/09/27 06:06:48;;;;;;;3.63;1.95;;;23.20;60.00;;;;;;5074775;28;20033;-76
2023/09/27 06:09:19;;;;;;;5.10;2.20;;;23.20;60.10;;;;;;5069605;28;20021;-77
2023/09/27 06:11:46;;;;;;;5.25;1.98;;;23.00;60.30;;;;;;5054570;28;20524;-75
2023/09/27 06:14:13;;;;;;;7.18;2.05;;;23.00;60.30;;;;;;5074490;28;20111;-76
2023/09/27 06:16:44;;;;;;;4.35;1.95;;;22.90;60.80;;;;;;5072712;28;20028;-78
2023/09/27 06:19:12;;;;;;;6.60;2.00;;;22.90;61.20;;;;;;5071737;28;20021;-77
2023/09/27 06:21:39;;;;;;;7.10;2.10;;;22.80;61.30;;;;;;5071488;28;20071;-77
2023/09/27 06:24:07;;;;;;;4.93;2.30;;;22.80;61.40;;;;;;5074236;28;20078;-78
2023/09/27 06:26:35;;;;;;;7.30;2.45;;;22.80;61.90;;;;;;5074336;28;20032;-77
2023/09/27 06:29:02;;;;;;;6.32;2.10;;;22.70;62.10;;;;;;5085477;28;20644;-77
2023/09/27 06:31:34;;;;;;;6.10;2.17;;;22.60;62.10;;;;;;5063366;28;20025;-75
2023/09/27 06:34:02;;;;;;;3.58;1.92;;;22.50;62.30;;;;;;5064375;28;20028;-76
2023/09/27 06:36:33;;;;;;;3.55;1.85;;;22.50;62.30;;;;;;5062050;28;20024;-77
2023/09/27 06:39:02;;;;;;;4.63;2.05;;;22.40;62.60;;;;;;5068806;28;20116;-77
2023/09/27 06:41:30;;;;;;;6.10;2.30;;;22.40;62.90;;;;;;5070825;28;20131;-78
2023/09/27 06:43:57;;;;;;;5.40;2.03;;;22.40;63.40;;;;;;5066001;28;20154;-77
2023/09/27 06:46:24;;;;;;;6.50;2.70;;;22.30;63.30;;;;;;5053812;28;20036;-77
2023/09/27 06:48:52;;;;;;;4.20;2.33;;;22.30;63.50;;;;;;5059192;28;20040;-78
2023/09/27 06:51:20;;;;;;;8.05;2.25;;;22.20;64.00;;;;;;5069512;28;20079;-78
2023/09/27 06:53:47;;;;;;;7.20;2.22;;;22.10;64.20;;;;;;5074319;28;20025;-78
2023/09/27 06:56:15;;;;;;;6.40;2.42;;;22.10;64.10;;;;;;5050473;28;20033;-77
2023/09/27 06:58:42;;;;;;;6.07;2.65;;;22.00;64.10;;;;;;5060793;28;20028;-77
2023/09/27 07:01:10;;;;;;;3.80;2.15;;;22.00;64.00;;;;;;5071116;28;20529;-79
2023/09/27 07:03:38;;;;;;;4.40;2.17;;;22.00;64.00;;;;;;5073734;28;20487;-76
2023/09/27 07:06:05;;;;;;;4.30;2.40;;;22.00;64.60;;;;;;5073537;28;20384;-76
2023/09/27 07:08:37;;;;;;;9.60;2.47;;;21.90;64.50;;;;;;5074436;28;20025;-76
2023/09/27 07:11:09;;;;;;;9.65;2.80;;;21.80;65.40;;;;;;5073378;28;20438;-77
2023/09/27 07:13:41;;;;;;;5.32;2.47;;;21.80;65.00;;;;;;5073075;28;20025;-78
2023/09/27 07:16:25;;;;;;;7.78;2.55;;;21.80;65.30;;;;;;5073104;28;20099;-76
2023/09/27 07:18:53;;;;;;;8.60;2.78;;;21.80;65.70;;;;;;5073305;28;20028;-78
2023/09/27 07:21:21;;;;;;;6.75;2.63;;;21.70;65.50;;;;;;5073039;28;20048;-76
2023/09/27 07:23:49;;;;;;;7.35;2.42;;;21.70;66.60;;;;;;5073275;28;20368;-77
2023/09/27 07:26:17;;;;;;;6.43;2.70;;;21.70;66.50;;;;;;5076009;28;20021;-78
2023/09/27 07:28:48;;;;;;;3.88;2.15;;;21.60;66.70;;;;;;5064206;28;20024;-80
2023/09/27 07:31:16;;;;;;;4.75;2.35;;;21.60;66.60;;;;;;5069906;28;20114;-80
2023/09/27 07:33:52;;;;;;;5.93;2.10;;;21.60;66.60;;;;;;5069225;28;20024;-78
2023/09/27 07:36:24;;;;;;;;;;;21.60;66.50;;;;;;5071676;28;20020;-77
2023/09/27 07:38:52;;;;;;;5.13;2.00;;;21.60;66.60;;;;;;5073240;28;19922;-77
2023/09/27 07:41:20;;;;;;;3.47;1.92;;;21.60;66.80;;;;;;5073968;28;20103;-78
2023/09/27 07:43:48;;;;;;;8.82;2.30;;;21.50;66.70;;;;;;5068894;28;20044;-78
2023/09/27 07:46:17;;;;;;;4.78;2.15;;;21.50;66.80;;;;;;5073011;28;20064;-77
2023/09/27 07:48:45;;;;;;;5.68;2.10;;;21.40;67.00;;;;;;5060441;28;20032;-82
2023/09/27 07:51:18;;;;;;;7.88;2.17;;;21.40;67.30;;;;;;5063079;28;21334;-78
2023/09/27 07:53:46;;;;;;;4.47;1.90;;;21.30;67.50;;;;;;5071321;28;20027;-80
2023/09/27 07:56:39;;;;;;;4.50;2.35;;;21.30;67.40;;;;;;5073066;28;20108;-77
2023/09/27 07:59:07;;;;;;;6.90;2.70;;;21.30;67.40;;;;;;5076369;28;20033;-76
2023/09/27 08:01:36;;;;;;;6.20;2.80;;;21.30;67.40;;;;;;5072960;28;20013;-77
2023/09/27 08:04:08;;;;;;;7.03;2.40;;;21.20;67.50;;;;;;5070945;28;20040;-81
2023/09/27 08:06:36;;;;;;;7.82;2.30;;;21.20;67.60;;;;;;5071591;28;20351;-77
2023/09/27 08:09:06;;;;;;;6.22;1.98;;;21.20;68.00;;;;;;5070166;28;20044;-77
2023/09/27 08:11:33;;;;;;;6.13;2.20;;;21.20;68.30;;;;;;5063633;28;20040;-79
2023/09/27 08:14:01;;;;;;;5.80;1.92;;;21.10;68.50;;;;;;5064476;28;20386;-78
2023/09/27 08:16:29;;;;;;;5.72;2.17;;;21.10;68.30;;;;;;5084350;28;20024;-78
2023/09/27 08:18:56;;;;;;;6.88;2.10;;;21.10;68.30;;;;;;5076521;28;20052;-80
2023/09/27 08:21:24;;;;;;;5.68;2.15;;;21.00;68.20;;;;;;5072850;28;20100;-78
2023/09/27 08:23:52;;;;;;;8.88;2.83;;;21.00;68.30;;;;;;5072789;28;20460;-77
2023/09/27 08:26:20;;;;;;;8.15;2.13;;;21.00;68.30;;;;;;5071850;28;20033;-77
2023/09/27 08:28:47;;;;;;;6.97;2.58;;;21.00;68.60;;;;;;5068511;28;21261;-76
2023/09/27 08:31:16;;;;;;;7.53;2.40;;;21.00;68.80;;;;;;5066884;28;20041;-75
2023/09/27 08:33:44;;;;;;;9.27;2.70;;;20.90;69.10;;;;;;5057047;28;20025;-76
2023/09/27 08:36:12;;;;;;;5.35;2.30;;;20.90;69.10;;;;;;5051745;28;20040;-77
2023/09/27 08:38:39;;;;;;;7.60;2.28;;;21.00;69.10;;;;;;5066338;28;20040;-76
2023/09/27 08:41:07;;;;;;;8.52;2.83;;;20.90;69.40;;;;;;5060090;28;20044;-77
2023/09/27 08:43:34;;;;;;;10.43;3.55;;;20.90;70.00;;;;;;5070516;28;20036;-78
2023/09/27 08:46:03;;;;;;;9.45;2.83;;;20.90;70.10;;;;;;5072819;28;20036;-77
2023/09/27 08:48:31;;;;;;;8.13;3.05;;;20.90;70.20;;;;;;5073392;28;20024;-76
2023/09/27 08:51:04;;;;;;;7.18;3.03;;;20.90;70.40;;;;;;5076153;28;20032;-78
2023/09/27 08:53:38;;;;;;;7.32;2.63;;;20.90;70.10;;;;;;5055978;28;20472;-76
2023/09/27 08:56:06;;;;;;;4.68;2.50;;;20.90;70.30;;;;;;5056066;28;20071;-77
2023/09/27 08:58:35;;;;;;;10.18;3.35;;;20.80;70.20;;;;;;5067545;28;20036;-78
2023/09/27 09:01:07;;;;;;;10.40;3.47;;;20.80;70.10;;;;;;5068566;28;20025;-77
2023/09/27 09:03:36;;;;;;;8.90;2.80;;;20.80;70.40;;;;;;5057246;28;20032;-78
2023/09/27 09:06:13;;;;;;;13.15;2.90;;;20.80;70.30;;;;;;5071588;28;20025;-78
2023/09/27 09:08:43;;;;;;;7.32;2.60;;;20.80;70.60;;;;;;5059744;28;20380;-76
2023/09/27 09:11:12;;;;;;;11.68;3.22;;;20.80;70.10;;;;;;5064323;28;20032;-78
2023/09/27 09:14:21;;;;;;;10.63;3.20;;;20.80;70.20;;;;;;5070397;28;20040;-79
2023/09/27 09:16:54;;;;;;;11.30;3.45;;;20.80;69.90;;;;;;5012867;28;20478;-77
2023/09/27 09:19:24;;;;;;;12.65;3.47;;;20.80;70.20;;;;;;5066587;28;20060;-77
2023/09/27 09:22:03;;;;;;;10.90;3.95;;;20.80;70.20;;;;;;5066068;28;20115;-77
2023/09/27 09:24:42;;;;;;;10.05;3.30;;;20.80;70.40;;;;;;5065869;28;20104;-77
2023/09/27 09:27:14;;;;;;;11.30;2.95;;;20.80;70.60;;;;;;5055012;28;20548;-77
2023/09/27 09:29:53;;;;;;;7.70;3.25;;;20.80;70.60;;;;;;5082503;28;20506;-77
2023/09/27 09:32:25;;;;;;;8.10;2.85;;;20.80;70.50;;;;;;5069180;28;20028;-77
2023/09/27 09:34:54;;;;;;;8.00;3.03;;;20.80;70.50;;;;;;5075233;28;20021;-76
2023/09/27 09:37:31;;;;;;;8.60;3.13;;;20.80;70.20;;;;;;5057535;28;20048;-78
2023/09/27 09:40:18;;;;;;;11.35;3.38;;;20.80;70.20;;;;;;5057370;28;20025;-78
2023/09/27 09:42:51;;;;;;;9.07;2.88;;;20.80;70.20;;;;;;5071077;28;20383;-78
2023/09/27 09:45:19;;;;;;;8.70;3.22;;;20.80;70.00;;;;;;5073214;28;20457;-81
2023/09/27 09:47:46;;;;;;;8.07;3.00;;;20.70;69.90;;;;;;5067200;28;20024;-78
2023/09/27 09:50:18;;;;;;;7.72;2.97;;;20.80;70.00;;;;;;5064255;28;20372;-78
2023/09/27 09:52:54;;;;;;;9.57;3.20;;;20.80;70.20;;;;;;5068002;28;20482;-77
2023/09/27 09:55:23;;;;;;;9.38;3.08;;;20.80;70.20;;;;;;5058127;28;20484;-78
2023/09/27 09:58:14;;;;;;;11.43;3.28;;;20.80;70.50;;;;;;5052774;28;20029;-78
2023/09/27 10:00:49;;;;;;;9.50;3.35;;;20.70;70.50;;;;;;5030638;28;20025;-77
2023/09/27 10:03:23;;;;;;;9.00;3.35;;;20.70;70.60;;;;;;5065449;28;21097;-78
2023/09/27 10:05:53;;;;;;;15.00;3.22;;;20.70;70.60;;;;;;5069990;28;20063;-77
2023/09/27 10:08:23;;;;;;;7.85;3.42;;;20.70;70.70;;;;;;5059078;28;20480;-79
2023/09/27 10:10:50;;;;;;;6.13;3.10;;;20.60;70.70;;;;;;5061785;28;20029;-79
2023/09/27 10:13:18;;;;;;;12.35;3.75;;;20.60;70.60;;;;;;5072641;28;20027;-77
2023/09/27 10:15:45;;;;;;;9.90;3.05;;;20.70;71.00;;;;;;5053191;28;20032;-77
2023/09/27 10:18:25;;;;;;;9.02;2.90;;;20.60;71.00;;;;;;5059615;28;20028;-78
2023/09/27 10:21:13;;;;;;;8.45;3.10;;;20.60;70.80;;;;;;5065957;28;20008;-80
2023/09/27 10:23:49;;;;;;;7.82;2.88;;;20.60;70.90;;;;;;5067831;28;20032;-78
2023/09/27 10:26:37;;;;;;;7.05;2.80;;;20.50;70.90;;;;;;5059287;28;20059;-81
2023/09/27 10:29:07;;;;;;;9.85;3.33;;;20.50;70.60;;;;;;5068439;28;20047;-74
2023/09/27 10:31:56;;;;;;;8.77;3.10;;;20.50;70.80;;;;;;5068230;28;20116;-76
2023/09/27 10:34:30;;;;;;;8.45;3.13;;;20.50;71.00;;;;;;5057622;28;20562;-76
2023/09/27 10:36:59;;;;;;;9.70;2.85;;;20.50;70.90;;;;;;5062131;28;20033;-77
2023/09/27 10:39:27;;;;;;;9.00;3.00;;;20.50;71.10;;;;;;5057922;28;20029;-78
2023/09/27 10:41:56;;;;;;;6.95;2.90;;;20.50;71.30;;;;;;5057529;28;20033;-77
2023/09/27 10:44:43;;;;;;;7.72;2.50;;;20.50;71.10;;;;;;5054636;28;20385;-82
2023/09/27 10:47:13;;;;;;;7.43;2.60;;;20.40;71.10;;;;;;5078587;28;20094;-81
2023/09/27 10:49:41;;;;;;;7.35;2.38;;;20.40;71.10;;;;;;5068940;28;20055;-77
2023/09/27 10:52:19;;;;;;;12.88;3.08;;;20.30;71.20;;;;;;5068054;28;20024;-82
2023/09/27 10:54:46;;;;;;;7.85;2.58;;;20.40;71.40;;;;;;5072044;28;20025;-79
2023/09/27 10:57:14;;;;;;;5.50;2.53;;;20.40;71.60;;;;;;5068059;28;20479;-82
2023/09/27 10:59:46;;;;;;;5.97;2.20;;;20.30;71.50;;;;;;5069321;28;20113;-78
2023/09/27 11:02:13;;;;;;;8.38;2.58;;;20.40;71.60;;;;;;5061064;28;20020;-78
2023/09/27 11:04:43;;;;;;;7.38;2.08;;;20.30;71.50;;;;;;5071075;28;20021;-81
2023/09/27 11:07:11;;;;;;;8.60;2.50;;;20.30;71.50;;;;;;5070391;28;20047;-78
2023/09/27 11:09:46;;;;;;;9.07;2.38;;;20.30;71.50;;;;;;5064830;28;20506;-76
2023/09/27 11:12:24;;;;;;;7.32;2.33;;;20.30;71.40;;;;;;5072552;28;20040;-78
2023/09/27 11:14:52;;;;;;;6.45;1.88;;;20.30;71.70;;;;;;5073171;28;20119;-80
2023/09/27 11:17:23;;;;;;;7.70;2.28;;;20.30;71.50;;;;;;5072578;28;20040;-81
2023/09/27 11:19:51;;;;;;;5.72;2.20;;;20.30;71.60;;;;;;5063627;28;20078;-78
2023/09/27 11:22:29;;;;;;;9.05;2.60;;;20.30;71.60;;;;;;5071026;28;20434;-80
2023/09/27 11:24:56;;;;;;;8.57;2.50;;;20.30;71.60;;;;;;5068661;28;20099;-78
2023/09/27 11:27:24;;;;;;;5.57;2.00;;;20.30;71.60;;;;;;5071374;28;20566;-81
2023/09/27 11:29:52;;;;;;;7.65;2.17;;;20.30;71.80;;;;;;5071628;28;20080;-78
2023/09/27 11:32:20;;;;;;;7.28;2.20;;;20.30;71.90;;;;;;5071339;28;20021;-78
2023/09/27 11:34:59;;;;;;;7.25;2.42;;;20.30;71.90;;;;;;5073301;28;20078;-78
2023/09/27 11:37:28;;;;;;;8.65;2.50;;;20.30;71.90;;;;;;5072544;28;20037;-78
2023/09/27 11:39:57;;;;;;;5.95;1.88;;;20.30;72.00;;;;;;5069954;28;20035;-78
2023/09/27 11:42:28;;;;;;;7.53;2.22;;;20.30;71.90;;;;;;5071761;28;20031;-77
2023/09/27 11:45:08;;;;;;;6.50;2.13;;;20.30;72.20;;;;;;5058420;28;20029;-82
2023/09/27 11:47:51;;;;;;;6.18;1.98;;;20.20;72.20;;;;;;5066757;28;20024;-77
2023/09/27 11:50:20;;;;;;;9.15;1.90;;;20.20;72.10;;;;;;5057076;28;20032;-77
2023/09/27 11:52:47;;;;;;;6.60;2.22;;;20.20;71.80;;;;;;5061861;28;20021;-77
2023/09/27 11:55:15;;;;;;;8.98;2.53;;;20.20;71.70;;;;;;5061307;28;20371;-77
2023/09/27 11:57:43;;;;;;;7.18;2.30;;;20.30;71.80;;;;;;5073035;28;20021;-80
2023/09/27 12:00:19;;;;;;;11.98;2.47;;;20.30;72.00;;;;;;5073345;28;20034;-77
2023/09/27 12:02:45;;;;;;;;;;;20.30;72.20;;;;;;5071482;28;20063;-77
2023/09/27 12:05:13;;;;;;;7.80;2.00;;;20.30;72.30;;;;;;5072694;28;19966;-77
2023/09/27 12:07:48;;;;;;;8.18;2.33;;;20.30;72.20;;;;;;5056571;28;20387;-80
2023/09/27 12:10:16;;;;;;;8.52;2.30;;;20.30;72.20;;;;;;5068314;28;20029;-80
2023/09/27 12:12:43;;;;;;;6.10;2.10;;;20.30;72.10;;;;;;5065446;28;20021;-78
2023/09/27 12:15:11;;;;;;;12.05;2.75;;;20.30;72.20;;;;;;5050937;28;20109;-79
2023/09/27 12:17:39;;;;;;;9.48;2.40;;;20.30;72.30;;;;;;5070164;28;20020;-77
2023/09/27 12:20:07;;;;;;;10.10;2.10;;;20.30;72.20;;;;;;5063623;28;20087;-79
2023/09/27 12:22:34;;;;;;;5.82;2.20;;;20.20;72.30;;;;;;5057771;28;20121;-77
2023/09/27 12:25:01;;;;;;;10.68;2.30;;;20.30;72.60;;;;;;5062963;28;20564;-78
2023/09/27 12:27:29;;;;;;;9.02;2.42;;;20.20;72.70;;;;;;5065171;28;20039;-78
2023/09/27 12:29:57;;;;;;;8.38;2.42;;;20.20;72.80;;;;;;5076312;28;20036;-79
2023/09/27 12:32:24;;;;;;;7.32;2.25;;;20.20;73.10;;;;;;5075484;28;20036;-77
2023/09/27 12:34:53;;;;;;;7.22;2.45;;;20.20;73.40;;;;;;5062539;28;20387;-79
2023/09/27 12:37:21;;;;;;;10.23;2.80;;;20.20;73.50;;;;;;5057824;28;20041;-78
2023/09/27 12:39:48;;;;;;;4.15;1.50;;;20.20;73.70;;;;;;5076436;28;20109;-77
2023/09/27 12:42:15;;;;;;;6.93;2.22;;;20.10;73.60;;;;;;5069885;28;20044;-80
2023/09/27 12:44:43;;;;;;;9.38;2.30;;;20.20;73.70;;;;;;5056787;28;20021;-80
2023/09/27 12:47:10;;;;;;;11.75;2.35;;;20.20;73.90;;;;;;5076133;28;20028;-77
2023/09/27 12:49:37;;;;;;;8.00;2.10;;;20.20;73.90;;;;;;5073792;28;20480;-82
2023/09/27 12:52:05;;;;;;;10.30;2.65;;;20.20;74.60;;;;;;5067325;28;20089;-79
2023/09/27 12:54:32;;;;;;;6.63;2.50;;;20.20;74.50;;;;;;5069898;28;20163;-80
2023/09/27 12:57:00;;;;;;;7.53;1.88;;;20.20;74.90;;;;;;5075983;28;20009;-81